KNIP

Details ICAO KNIP (NIP)
Name Jacksonville NAS
Region United States
Timezone America/New_York (UTC-4.0)
Plans Departing 28
Arriving 25
Stats Elevation 22 ft / 7 m (AMSL)
Location 30.234262° -81.674650°
Runways 2
Magnetic Variation 6.473° W
Sunrise 2018-05-23 10:30:02 UTC / 2018-05-23 06:30:02 Local
Sunset 2018-05-24 00:19:46 UTC / 2018-05-23 20:19:46 Local
Advertisement - Login to hide

Runways

ID Width Length Bearing (true) Bearing (mag) Surface Threshold Offset Overrun Length
09 200 ft / 61 m 7,987 ft / 2,434 m 89.67° 96.14° Asphalt 0 ft / 0 m 0 ft / 0 m
14 200 ft / 61 m 5,982 ft / 1,823 m 134.81° 141.28° Asphalt 2,734 ft / 833 m 0 ft / 0 m
27 200 ft / 61 m 7,987 ft / 2,434 m 269.68° 276.15° Asphalt 0 ft / 0 m 1,000 ft / 305 m
32 200 ft / 61 m 5,982 ft / 1,823 m 314.82° 321.29° Asphalt 0 ft / 0 m 0 ft / 0 m

Map

Weather


0- 5 10 15 20 25 30 35+ Temperature / ° C

Clouds and Precipitation
Forecast for 2018-05-23 06:00 UTC. Updated 40 minutes ago

Ground ~20,000 ft ~40,000 ft Winds

METAR

KNIP 230553Z 18005KT 10SM FEW015 FEW250 23/22 A3010 RMK AO2 SLP188 T02330217 10267 20228 58003

TAF

Not found

Frequencies

Clearance 134.77 MHz CLNC DEL
Tower 120.00 MHz TWR
Ground 128.60 MHz GND
Approach 123.80 MHz APP/DEP
Warning: Do not use this data for real-world aviation or navigation. No guarantee of current accuracy is given.